Latest Coastal Weather Observations for Croker Island Airport

IDD60701

Issued at 9:41 pm CST Sunday 10 May 2026 (issued every 10 minutes, with the page automatically refreshed every 10 minutes)

About coastal observations | Map of coastal stations | Coastal observations for NT | Marine services | Other Formats
Station Details ID: 014308 Name: CROKER ISLAND AIRPORT Lat: -11.16 Lon: 132.48 Height: 9.2 m
Data from the previous 72 hours. | See also: Recent months at Croker Island Airport
Date/Time
CST
Wind Sea
Height
m
Swell Vis
km
Cloud Weather Temp
°C
Press
MSL
hPa
Rain since
9am
mm
Dir  Spd
kts
Gust
kts
Height
m
Period
s
Dir
10/09:30pm ESE 6 9 - - - - - - - 27.2 1012.9 0.0
10/09:00pm ESE 5 9 - - - - - - - 27.1 1012.7 0.0
10/08:30pm ESE 6 10 - - - - - - - 27.0 1012.6 0.0
10/08:00pm ESE 8 14 - - - - - - - 26.9 1012.0 0.0
10/07:30pm ESE 6 12 - - - - - - - 26.6 1011.6 0.0
10/07:00pm ESE 7 12 - - - - - - - 26.4 1011.2 0.0
10/06:30pm E 10 17 - - - - - - - 26.0 1011.1 0.0
10/06:00pm ESE 7 10 - - - - - - - 27.8 1010.8 0.0
10/05:30pm ESE 7 14 - - - - - - - 27.6 1010.5 0.0
10/05:00pm ESE 9 14 - - - - - - - 27.0 1010.2 0.0
10/04:30pm E 10 17 - - - - - - - 29.4 1009.7 0.0
10/04:00pm ESE 11 18 - - - - - - - 30.5 1009.6 0.0
10/03:30pm ESE 12 21 - - - - - - - 30.6 1009.7 0.0
10/03:00pm ESE 14 21 - - - - - - - 30.2 1009.9 0.0
10/02:30pm ESE 11 21 - - - - - - - 31.3 1009.9 0.0
10/02:00pm ESE 12 19 - - - - - - - 31.7 1010.2 0.0
10/01:30pm ESE 14 22 - - - - - - - 30.8 1010.6 0.0
10/01:00pm ESE 12 20 - - - - - - - 30.8 1010.8 0.0
10/12:30pm ESE 14 23 - - - - - - - 30.3 1011.3 0.0
10/12:00pm ESE 14 21 - - - - - - - 30.3 1011.6 0.0
10/11:30am ESE 10 19 - - - - - - - 30.4 1012.1 0.0
10/11:00am ESE 9 14 - - - - - - - 29.9 1012.2 0.0
10/10:30am ESE 11 18 - - - - - - - 29.1 1012.3 0.0
10/10:00am ESE 9 15 - - - - - - - 28.0 1012.5 0.0
10/09:30am SE 10 18 - - - - - - - 28.6 1012.3 0.0
10/09:00am SE 9 15 - - - - - - - 28.1 1012.1 0.0
10/08:30am SE 8 13 - - - - - - - 27.4 1011.9 0.0
10/08:00am SE 7 10 - - - - - - - 26.4 1011.7 0.0
10/07:30am SE 5 9 - - - - - - - 24.9 1011.6 0.0
10/07:00am SE 5 9 - - - - - - - 25.1 1011.3 0.0
10/06:30am SE 4 7 - - - - - - - 24.9 1011.0 0.0
10/06:00am SE 4 7 - - - - - - - 24.5 1010.7 0.0
10/05:30am SE 5 8 - - - - - - - 24.9 1010.5 0.0
10/05:00am SE 5 7 - - - - - - - 25.1 1010.3 0.0
10/04:30am SE 6 11 - - - - - - - 25.5 1010.2 0.0
10/04:00am SE 5 8 - - - - - - - 25.5 1010.3 0.0
10/03:30am SE 6 9 - - - - - - - 25.7 1010.4 0.0
10/03:00am SE 6 10 - - - - - - - 25.6 1010.7 0.0
10/02:30am SE 6 9 - - - - - - - 25.6 1010.8 0.0
10/02:00am SE 6 9 - - - - - - - 25.8 1011.0 0.0
10/01:30am SE 5 7 - - - - - - - 25.7 1011.1 0.0
10/01:00am SE 5 9 - - - - - - - 26.2 1011.3 0.0
10/12:30am SE 7 11 - - - - - - - 26.7 1011.5 0.0
10/12:00am SE 6 10 - - - - - - - 26.4 1011.4 0.0
 
Date/Time
CST
Wind Sea
Height
m
Swell Vis
km
Cloud Weather Temp
°C
Press
MSL
hPa
Rain since
9am
mm
Dir  Spd
kts
Gust
kts
Height
m
Period
s
Dir
09/11:30pm SE 3 4 - - - - - - - 25.5 1011.5 0.0
09/11:00pm SE 3 4 - - - - - - - 25.4 1011.7 0.0
09/10:30pm CALM 0 2 - - - - - - - 24.7 1011.8 0.0
09/10:00pm CALM 0 0 - - - - - - - 24.3 1011.7 0.0
09/09:30pm CALM 0 0 - - - - - - - 24.5 1011.6 0.0
09/09:00pm ESE 2 3 - - - - - - - 24.9 1011.5 0.0
09/08:30pm ESE 2 2 - - - - - - - 25.0 1011.2 0.0
09/08:00pm ESE 3 3 - - - - - - - 25.4 1010.7 0.0
09/07:30pm ESE 2 2 - - - - - - - 25.6 1010.4 0.0
09/07:00pm ESE 2 2 - - - - - - - 26.5 1010.3 0.0
09/06:30pm ESE 3 4 - - - - - - - 27.4 1010.0 0.0
09/06:00pm ESE 5 7 - - - - - - - 28.5 1009.7 0.0
09/05:30pm ESE 6 10 - - - - - - - 29.3 1009.5 0.0
09/05:00pm ESE 7 12 - - - - - - - 29.5 1009.3 0.0
09/04:30pm ESE 9 14 - - - - - - - 28.9 1009.2 0.0
09/04:00pm ESE 9 15 - - - - - - - 29.5 1008.8 0.0
09/03:30pm E 12 19 - - - - - - - 30.1 1008.8 0.0
09/03:00pm E 11 17 - - - - - - - 30.5 1009.2 0.0
09/02:30pm ESE 9 17 - - - - - - - 30.1 1009.5 0.0
09/02:00pm ESE 11 16 - - - - - - - 29.6 1009.9 0.0
09/01:30pm ESE 9 16 - - - - - - - 30.0 1010.1 0.0
09/01:00pm ESE 12 18 - - - - - - - 29.1 1010.4 0.0
09/12:30pm ESE 11 18 - - - - - - - 28.6 1010.9 0.0
09/12:00pm ESE 11 19 - - - - - - - 28.8 1011.3 0.0
09/11:30am ESE 12 17 - - - - - - - 28.6 1011.9 0.0
09/11:00am ESE 12 20 - - - - - - - 28.4 1012.5 0.0
09/10:30am ESE 11 18 - - - - - - - 28.4 1012.3 0.0
09/10:00am ESE 10 17 - - - - - - - 28.1 1012.2 0.0
09/09:30am ESE 10 16 - - - - - - - 27.4 1012.0 0.0
09/09:00am SE 10 16 - - - - - - - 27.1 1011.9 0.0
09/08:30am SE 9 14 - - - - - - - 26.9 1011.7 0.0
09/08:00am SE 7 11 - - - - - - - 25.6 1011.5 0.0
09/07:30am SE 7 10 - - - - - - - 25.4 1011.2 0.0
09/07:00am ESE 6 11 - - - - - - - 24.4 1010.9 0.0
09/06:30am SE 7 11 - - - - - - - 24.4 1010.9 0.0
09/06:00am SE 5 8 - - - - - - - 23.8 1010.6 0.0
09/05:30am SE 4 7 - - - - - - - 23.8 1010.5 0.0
09/05:00am ESE 5 8 - - - - - - - 24.4 1010.5 0.0
09/04:30am ESE 7 11 - - - - - - - 24.7 1010.5 0.0
09/04:00am ESE 6 10 - - - - - - - 24.6 1010.4 0.0
09/03:30am SE 5 7 - - - - - - - 24.5 1010.4 0.0
09/03:00am SE 5 9 - - - - - - - 24.8 1010.6 0.0
09/02:30am SE 6 10 - - - - - - - 25.3 1010.7 0.0
09/02:00am SE 7 10 - - - - - - - 25.4 1010.7 0.0
09/01:30am SE 7 11 - - - - - - - 25.8 1011.3 0.0
09/01:00am SE 5 8 - - - - - - - 25.6 1011.3 0.0
09/12:30am SE 5 7 - - - - - - - 25.6 1011.3 0.0
09/12:00am ESE 3 3 - - - - - - - 24.8 1011.5 0.0
 
Date/Time
CST
Wind Sea
Height
m
Swell Vis
km
Cloud Weather Temp
°C
Press
MSL
hPa
Rain since
9am
mm
Dir  Spd
kts
Gust
kts
Height
m
Period
s
Dir
08/11:30pm E 2 3 - - - - - - - 24.1 1011.4 0.0
08/11:00pm E 2 3 - - - - - - - 24.0 1011.7 0.0
08/10:30pm E 2 2 - - - - - - - 24.2 1011.7 0.0
08/10:00pm E 3 4 - - - - - - - 24.4 1011.6 0.0
08/09:30pm E 3 4 - - - - - - - 24.5 1011.7 0.0
08/09:00pm E 3 4 - - - - - - - 24.6 1011.6 0.0
08/08:30pm E 2 3 - - - - - - - 24.4 1011.4 0.0
08/08:00pm E 2 3 - - - - - - - 24.8 1011.1 0.0
08/07:30pm E 1 2 - - - - - - - 25.4 1010.7 0.0
08/07:00pm E 2 3 - - - - - - - 26.5 1010.4 0.0
08/06:30pm E 3 4 - - - - - - - 27.4 1009.9 0.0
08/06:00pm ESE 6 11 - - - - - - - 28.6 1009.8 0.0
08/05:30pm ESE 6 11 - - - - - - - 29.4 1009.5 0.0
08/05:00pm E 8 13 - - - - - - - 29.7 1009.4 0.0
08/04:30pm ESE 10 16 - - - - - - - 29.8 1009.3 0.0
08/04:00pm E 9 15 - - - - - - - 30.2 1009.3 0.0
08/03:30pm ESE 12 19 - - - - - - - 30.2 1009.5 0.0
08/03:00pm ESE 12 19 - - - - - - - 30.3 1009.5 0.0
08/02:30pm ESE 11 23 - - - - - - - 30.6 1009.6 0.0
08/02:00pm ESE 12 18 - - - - - - - 30.5 1009.9 0.0
08/01:30pm ESE 11 18 - - - - - - - 30.2 1010.1 0.0
08/01:00pm ESE 10 17 - - - - - - - 30.9 1010.4 0.0
08/12:30pm ESE 10 16 - - - - - - - 30.5 1010.8 0.0
08/12:00pm ESE 9 15 - - - - - - - 30.8 1011.1 0.0
08/11:30am ESE 8 13 - - - - - - - 30.8 1011.3 0.0
08/11:00am SE 8 13 - - - - - - - 30.2 1011.8 0.0
08/10:30am SE 9 15 - - - - - - - 29.2 1012.0 0.0
08/10:00am SE 9 15 - - - - - - - 28.7 1012.2 0.0
08/09:30am SE 11 15 - - - - - - - 28.1 1012.2 0.0
08/09:00am SE 9 14 - - - - - - - 27.6 1012.1 0.0
08/08:30am ESE 7 11 - - - - - - - 26.8 1011.8 0.0
08/08:00am SE 7 12 - - - - - - - 25.9 1011.7 0.0
08/07:30am SE 5 9 - - - - - - - 24.7 1011.6 0.0
08/07:00am SE 5 8 - - - - - - - 24.0 1011.3 0.0
08/06:30am SE 5 8 - - - - - - - 24.1 1011.1 0.0
08/06:00am ESE 5 9 - - - - - - - 24.2 1011.1 0.0
08/05:30am ESE 6 12 - - - - - - - 24.4 1011.1 0.0
08/05:00am ESE 7 10 - - - - - - - 24.7 1011.0 0.0
08/04:30am ESE 6 10 - - - - - - - 24.6 1011.0 0.0
08/04:00am SE 6 10 - - - - - - - 24.6 1011.0 0.0
08/03:30am SE 5 10 - - - - - - - 24.5 1011.0 0.0
08/03:00am SE 5 8 - - - - - - - 24.6 1011.0 0.0
08/02:30am SE 5 7 - - - - - - - 24.5 1011.1 0.0
08/02:00am SE 4 7 - - - - - - - 24.7 1011.2 0.0
08/01:30am SE 5 9 - - - - - - - 24.9 1011.4 0.0
08/01:00am SE 5 8 - - - - - - - 25.2 1011.5 0.0
08/12:30am SE 5 7 - - - - - - - 25.5 1011.7 0.0
08/12:00am SSE 5 6 - - - - - - - 25.7 1011.9 0.0
 
Date/Time
CST
Wind Sea
Height
m
Swell Vis
km
Cloud Weather Temp
°C
Press
MSL
hPa
Rain since
9am
mm
Dir  Spd
kts
Gust
kts
Height
m
Period
s
Dir
07/11:30pm SSE 4 5 - - - - - - - 24.9 1011.9 0.0
07/11:00pm ESE 2 3 - - - - - - - 23.5 1012.0 0.0
07/10:30pm ESE 2 2 - - - - - - - 24.1 1012.0 0.0
07/10:00pm ESE 3 3 - - - - - - - 24.7 1012.1 0.0

Other formats

Comma delimited format used in spreadsheet applications
http://www.bom.gov.au/fwo/IDD60701/IDD60701.94108.axf

JavaScript Object Notation format (JSON) in row-major order
http://www.bom.gov.au/fwo/IDD60701/IDD60701.94108.json

Data quality

Most of these data are generated automatically and are frequently updated. Quality checks on data are not normally performed. It is possible for incorrect values to appear. Refer to information at About Latest Weather Observations and please check the disclaimer before using these data.